Aérodrome :
LOGIN :

S'inscrire | Disclaimer

   EN    FR    IT 

 










Légende :    VFR   VFR Marginal   IFR   IFR Intensif   IFR Très Intensif
Visi : 
Plafond : 
>= 8 km
>= 3000ft
5 à 8 km
1000 à 3000 ft
1500m à 5 km
500 à 1000 ft
800 à 1500m
200 à 500 ft
< 800m
< 200 ft
Symboles :   Orages  Brouillard  Fortes neiges  Fortes précipitations  Vent > 20 kt
SIGMETs :   Divers  Orages  Givrage  Turbulence  Onde Orograph.  Cendres Volcan.






- Altitude de l'aérodrome : 463 ft
- Code IATA : HME


DAUH - Oued Irara-Krim Belkacem

DERNIER METAR :
  • 032030Z 31004KT CAVOK 17/M00 Q1012

METARs EXPIRÉS :
  • 032000Z 31006KT CAVOK 18/M00 Q1012
  • 031900Z 30008KT CAVOK 19/M00 Q1011
  • 031830Z 30012KT CAVOK 20/M00 Q1010
  • 031800Z 30013KT CAVOK 21/M00 Q1010

TAF TAF DAUH
Valide du 03 à 18h jusqu'au 04 à 18h UTC


031700Z 0318/0418 33012KT 8000 NSC
PROB40
TEMPO 0318/0322 33022KT 3000 DRSA
BECMG 0400/0404 03012KT
BECMG 0410/0414 09010KT



MET'MAP, la Météo Aéronautique d'un coup d'oeil ! - Copyright ORBIFLY Décembre 2007 - Disclaimer

ORBIFLY MET'MAP TEAM :

Programmation & Développement : Alexandra Zaïnal
Sur une idée originale de : Baudouin d'Aumeries
Assistance à la programmation : Marc-Olivier Méhu
Soutien technique & logistique : Manuel Goepfert

Contact : metmap@orbifly.com




SOURCES & CREDITS :

   NOAA